Time;durP1;ratioP1;P1;durP2;ratioP2;P2;SDS_P1;SDS_P2;PMS_P1;PMS_P2;Temp;Humidity;BMP_temperature;BMP_pressure;BME280_temperature;BME280_humidity;BME280_pressure;Samples;Min_cycle;Max_cycle;Signal;HPM_P1;HPM_P2
2022/01/20 00:02:30;;;;;;;1.88;1.60;;;19.80;61.30;;;;;;10624917;27;20470;-55
2022/01/20 00:29:01;;;;;;;3.53;2.55;;;19.30;60.10;;;;;;10626344;27;20077;-53
2022/01/20 00:34:16;;;;;;;6.70;2.47;;;19.40;60.10;;;;;;10627075;27;20054;-51
2022/01/20 00:39:21;;;;;;;4.03;2.75;;;19.40;60.10;;;;;;10608992;27;20535;-52
2022/01/20 00:44:27;;;;;;;4.30;2.55;;;19.40;60.10;;;;;;10626042;27;20065;-50
2022/01/20 00:49:35;;;;;;;5.77;2.27;;;19.50;60.20;;;;;;10591119;27;20051;-53
2022/01/20 00:54:40;;;;;;;3.30;2.10;;;19.40;60.20;;;;;;10625275;27;20039;-50
2022/01/20 00:59:45;;;;;;;6.18;2.70;;;19.50;60.30;;;;;;10622682;27;20060;-49
2022/01/20 01:04:51;;;;;;;3.28;2.75;;;19.40;59.90;;;;;;10606710;27;20050;-49
2022/01/20 01:09:55;;;;;;;5.13;2.78;;;19.20;59.80;;;;;;10624172;27;20096;-52
2022/01/20 01:15:02;;;;;;;7.60;2.90;;;19.10;59.90;;;;;;10625077;27;20055;-52
2022/01/20 01:20:16;;;;;;;4.20;2.85;;;19.00;59.90;;;;;;10625843;27;20088;-50
2022/01/20 01:25:21;;;;;;;3.00;2.50;;;19.00;60.10;;;;;;10606470;27;20069;-53
2022/01/20 01:30:55;;;;;;;10.10;2.58;;;19.00;60.30;;;;;;10625435;27;20055;-55
2022/01/20 01:35:58;;;;;;;9.30;2.13;;;19.00;60.40;;;;;;10606180;27;20043;-56
2022/01/20 01:41:11;;;;;;;2.92;1.55;;;19.10;60.50;;;;;;10606534;27;20043;-56
2022/01/20 01:46:16;;;;;;;3.17;1.50;;;19.00;60.50;;;;;;10624473;27;20039;-56
2022/01/20 01:51:22;;;;;;;6.43;1.83;;;19.00;60.60;;;;;;10605664;28;20047;-56
2022/01/20 01:56:28;;;;;;;8.93;1.33;;;19.00;60.70;;;;;;10606278;28;20088;-56
2022/01/20 02:01:36;;;;;;;6.68;1.48;;;19.00;60.70;;;;;;10606167;28;20488;-56
2022/01/20 02:07:01;;;;;;;2.90;0.95;;;19.00;60.80;;;;;;10606108;28;20043;-46
2022/01/20 02:17:53;;;;;;;4.72;1.00;;;19.00;61.00;;;;;;10623202;28;20512;-49
2022/01/20 02:22:58;;;;;;;6.85;1.00;;;19.00;61.00;;;;;;10613605;27;20457;-47
2022/01/20 02:28:09;;;;;;;2.53;0.95;;;18.90;61.00;;;;;;10597653;27;20077;-49
2022/01/20 02:33:18;;;;;;;2.97;0.90;;;18.90;61.10;;;;;;10631218;27;20051;-47
2022/01/20 02:38:33;;;;;;;1.17;0.90;;;18.90;61.10;;;;;;10612767;27;20051;-49
2022/01/20 02:49:04;;;;;;;14.70;1.27;;;18.90;61.30;;;;;;10613121;27;20084;-47
2022/01/20 02:54:10;;;;;;;3.85;0.80;;;18.90;61.30;;;;;;10612990;27;20077;-49
2022/01/20 02:59:16;;;;;;;5.10;0.85;;;18.90;61.30;;;;;;10630921;27;20181;-48
2022/01/20 03:04:24;;;;;;;4.75;0.88;;;18.80;61.30;;;;;;10645149;27;20035;-48
2022/01/20 03:09:33;;;;;;;1.13;0.77;;;18.80;61.40;;;;;;10611897;27;20162;-46
2022/01/20 03:14:38;;;;;;;2.42;0.65;;;18.80;61.40;;;;;;10629750;27;20043;-46
2022/01/20 03:19:44;;;;;;;2.05;0.85;;;18.80;61.40;;;;;;10610960;27;20069;-48
2022/01/20 03:24:50;;;;;;;1.60;0.80;;;18.80;61.40;;;;;;10611855;27;20104;-47
2022/01/20 03:29:55;;;;;;;3.08;0.75;;;18.80;61.40;;;;;;10610216;27;20502;-48
2022/01/20 03:35:02;;;;;;;1.75;0.82;;;18.70;61.30;;;;;;10611506;27;20051;-48
2022/01/20 03:40:11;;;;;;;2.35;0.80;;;18.70;61.40;;;;;;10611212;27;20043;-49
2022/01/20 03:45:16;;;;;;;2.72;0.90;;;18.70;61.40;;;;;;10610238;27;20326;-52
2022/01/20 03:55:45;;;;;;;3.38;0.90;;;18.70;61.50;;;;;;10610001;27;20120;-52
2022/01/20 04:00:53;;;;;;;2.10;0.60;;;18.60;61.50;;;;;;10609751;27;20105;-52
2022/01/20 04:06:14;;;;;;;1.60;0.68;;;18.60;61.50;;;;;;10595353;27;20099;-54
2022/01/20 04:11:26;;;;;;;13.20;1.13;;;18.60;61.60;;;;;;10609537;27;20051;-53
2022/01/20 04:16:37;;;;;;;5.90;0.77;;;18.60;61.50;;;;;;10627630;27;20314;-53
2022/01/20 04:21:42;;;;;;;3.55;1.17;;;18.70;61.50;;;;;;10609424;27;20088;-50
2022/01/20 04:26:48;;;;;;;4.25;1.20;;;18.90;61.40;;;;;;10608566;27;20560;-49
2022/01/20 04:31:54;;;;;;;2.80;1.20;;;18.90;61.20;;;;;;10583054;28;20048;-48
2022/01/20 04:37:03;;;;;;;5.10;1.08;;;19.00;61.20;;;;;;10583763;28;20043;-47
2022/01/20 04:42:08;;;;;;;;;;;19.20;61.20;;;;;;10583398;28;20081;-50
2022/01/20 04:57:46;;;;;;;2.45;1.08;;;19.40;60.90;;;;;;10582002;28;20101;-48
2022/01/20 05:02:52;;;;;;;2.90;0.90;;;19.50;61.00;;;;;;10583326;28;20044;-48
2022/01/20 05:07:57;;;;;;;2.67;1.27;;;19.60;60.90;;;;;;10582770;28;20044;-48
2022/01/20 05:13:11;;;;;;;4.80;0.85;;;19.70;60.90;;;;;;10582430;28;20565;-49
2022/01/20 05:18:18;;;;;;;2.17;1.08;;;19.80;60.90;;;;;;10582672;28;20047;-48
2022/01/20 05:23:23;;;;;;;3.40;1.08;;;19.80;60.90;;;;;;10582136;28;20100;-48
2022/01/20 05:28:28;;;;;;;3.60;0.90;;;19.90;60.90;;;;;;10589697;27;20104;-49
2022/01/20 05:33:33;;;;;;;1.73;0.80;;;20.00;61.00;;;;;;10606269;27;20047;-48
2022/01/20 05:38:38;;;;;;;3.40;0.85;;;20.10;61.00;;;;;;10606597;27;20047;-47
2022/01/20 05:43:43;;;;;;;2.50;1.02;;;20.10;60.90;;;;;;10624022;27;20115;-47
2022/01/20 05:48:49;;;;;;;3.95;0.93;;;20.10;60.90;;;;;;10605914;27;20051;-48
2022/01/20 05:54:09;;;;;;;2.80;1.00;;;20.20;60.90;;;;;;10623675;27;20496;-48
2022/01/20 05:59:14;;;;;;;2.75;1.20;;;20.20;60.90;;;;;;10605444;28;20043;-48
2022/01/20 06:04:19;;;;;;;1.80;0.80;;;20.30;60.90;;;;;;10623633;28;20081;-49
2022/01/20 06:09:25;;;;;;;2.45;0.82;;;20.30;60.90;;;;;;10605521;28;20491;-48
2022/01/20 06:14:30;;;;;;;1.92;0.73;;;20.40;60.80;;;;;;10605948;28;20047;-47
2022/01/20 06:19:37;;;;;;;2.65;0.80;;;20.50;60.90;;;;;;10604965;28;20457;-48
2022/01/20 06:24:42;;;;;;;1.75;0.80;;;20.50;61.00;;;;;;10623270;28;20076;-49
2022/01/20 06:29:47;;;;;;;1.85;0.90;;;20.50;60.90;;;;;;10604726;28;20403;-49
2022/01/20 06:34:52;;;;;;;5.40;0.77;;;20.60;60.90;;;;;;10605131;28;20484;-49
2022/01/20 06:39:58;;;;;;;2.03;0.70;;;20.60;60.80;;;;;;10605264;28;20072;-47
2022/01/20 06:45:09;;;;;;;3.28;0.80;;;20.60;60.70;;;;;;10604975;28;20039;-49
2022/01/20 06:50:14;;;;;;;2.28;0.90;;;20.60;60.70;;;;;;10604907;28;20047;-48
2022/01/20 06:55:23;;;;;;;4.43;0.95;;;20.60;60.70;;;;;;10604565;28;20047;-47
2022/01/20 07:00:29;;;;;;;2.42;0.80;;;20.50;60.60;;;;;;10604501;28;20096;-49
2022/01/20 07:05:35;;;;;;;6.65;1.00;;;20.50;60.70;;;;;;10608089;27;20064;-52
2022/01/20 07:10:41;;;;;;;2.47;1.02;;;20.50;60.70;;;;;;10612186;27;20092;-51
2022/01/20 07:15:46;;;;;;;4.07;0.90;;;20.50;60.60;;;;;;10630073;27;20051;-53
2022/01/20 07:20:51;;;;;;;4.03;1.13;;;20.40;60.70;;;;;;10611353;27;20051;-52
2022/01/20 07:26:13;;;;;;;11.52;2.72;;;20.40;60.70;;;;;;10610781;27;20488;-53
2022/01/20 07:31:23;;;;;;;13.02;3.03;;;20.30;60.30;;;;;;10585737;28;20055;-51
2022/01/20 07:36:28;;;;;;;10.88;3.42;;;20.10;60.00;;;;;;10585380;28;20101;-50
2022/01/20 07:41:33;;;;;;;93.93;16.25;;;20.00;59.80;;;;;;10584940;28;20048;-46
2022/01/20 07:46:48;;;;;;;78.50;11.85;;;20.00;60.10;;;;;;10584948;28;20104;-48
2022/01/20 07:51:54;;;;;;;57.20;9.30;;;19.90;60.10;;;;;;10585929;28;20098;-49
2022/01/20 07:56:59;;;;;;;35.35;8.40;;;19.80;59.00;;;;;;10619124;27;20040;-50
2022/01/20 08:02:04;;;;;;;36.42;7.55;;;19.70;58.90;;;;;;10584043;28;20048;-50
2022/01/20 08:07:11;;;;;;;34.97;6.20;;;19.60;58.90;;;;;;10618037;27;20481;-52
2022/01/20 08:12:18;;;;;;;23.48;5.00;;;19.50;58.40;;;;;;10584286;28;20040;-48
2022/01/20 08:17:39;;;;;;;20.63;4.97;;;19.50;58.50;;;;;;10583891;28;20541;-49
2022/01/20 08:22:44;;;;;;;22.38;4.80;;;19.40;58.30;;;;;;10583605;28;20488;-48
2022/01/20 08:27:50;;;;;;;18.80;4.88;;;19.40;58.20;;;;;;10587697;27;20043;-52
2022/01/20 08:32:59;;;;;;;19.00;4.70;;;19.30;58.10;;;;;;10643061;27;20446;-48
2022/01/20 08:38:16;;;;;;;18.03;4.67;;;19.20;57.90;;;;;;10608244;27;20480;-51
2022/01/20 08:43:23;;;;;;;17.38;3.47;;;19.20;57.90;;;;;;10608240;27;20065;-51
2022/01/20 08:48:29;;;;;;;12.50;3.75;;;19.10;57.80;;;;;;10609255;27;20047;-53
2022/01/20 08:53:53;;;;;;;14.63;3.90;;;19.10;57.80;;;;;;10625873;27;20076;-50
2022/01/20 08:59:05;;;;;;;10.07;3.20;;;19.00;57.80;;;;;;10607572;27;20112;-53
2022/01/20 09:04:10;;;;;;;12.15;3.88;;;19.00;57.80;;;;;;10626352;27;20065;-49
2022/01/20 09:09:40;;;;;;;11.77;3.33;;;18.90;57.30;;;;;;10607210;27;20100;-48
2022/01/20 09:20:11;;;;;;;10.73;2.78;;;18.90;57.50;;;;;;10606430;27;20043;-51
2022/01/20 09:25:17;;;;;;;7.43;2.72;;;18.90;57.70;;;;;;10625150;27;20039;-48
2022/01/20 09:30:26;;;;;;;6.47;2.40;;;18.80;57.60;;;;;;10605321;27;20051;-48
2022/01/20 09:35:36;;;;;;;8.80;3.22;;;18.80;57.70;;;;;;10606344;27;20108;-50
2022/01/20 09:40:43;;;;;;;8.82;3.00;;;18.80;57.60;;;;;;10605974;27;20346;-51
2022/01/20 09:45:55;;;;;;;5.77;2.37;;;18.70;56.90;;;;;;10605771;27;20069;-49
2022/01/20 09:51:03;;;;;;;7.03;2.30;;;18.70;58.20;;;;;;10605953;27;20051;-48
2022/01/20 09:56:27;;;;;;;9.20;2.50;;;18.60;58.40;;;;;;10606051;28;20051;-53
2022/01/20 10:01:48;;;;;;;27.00;2.53;;;18.60;58.50;;;;;;10606233;28;20047;-50
2022/01/20 10:07:11;;;;;;;6.05;2.50;;;18.60;58.80;;;;;;10623145;28;20441;-52
2022/01/20 10:12:34;;;;;;;10.40;2.72;;;18.70;59.20;;;;;;10605985;28;20419;-52
2022/01/20 10:18:07;;;;;;;6.95;2.40;;;18.80;59.40;;;;;;10605153;28;20047;-51
2022/01/20 10:23:25;;;;;;;4.65;2.17;;;18.90;59.60;;;;;;10605110;28;20073;-48
2022/01/20 10:29:09;;;;;;;8.33;2.40;;;18.90;59.70;;;;;;10578184;28;20059;-47
2022/01/20 10:34:30;;;;;;;6.18;2.22;;;18.90;60.00;;;;;;10605765;28;20116;-49
2022/01/20 10:40:09;;;;;;;4.22;1.83;;;19.00;60.20;;;;;;10621826;27;20051;-48
2022/01/20 10:45:26;;;;;;;5.25;2.17;;;19.00;60.40;;;;;;10613636;27;20036;-48
2022/01/20 10:50:36;;;;;;;8.93;2.10;;;19.00;60.50;;;;;;10612839;27;20452;-49
2022/01/20 10:55:47;;;;;;;4.03;1.75;;;19.10;60.70;;;;;;10613218;27;20039;-51
2022/01/20 11:00:55;;;;;;;;;;;19.10;60.80;;;;;;10612696;27;20081;-49
2022/01/20 11:06:03;;;;;;;3.60;1.83;;;19.10;60.80;;;;;;10609731;27;20371;-49
2022/01/20 11:11:30;;;;;;;4.60;1.63;;;19.20;60.90;;;;;;10600603;27;20380;-50
2022/01/20 11:16:54;;;;;;;4.82;1.75;;;19.20;60.90;;;;;;10629346;27;20495;-47
2022/01/20 11:22:12;;;;;;;8.63;1.90;;;19.20;61.40;;;;;;10610335;27;20047;-46
2022/01/20 11:27:35;;;;;;;6.03;1.60;;;19.40;61.80;;;;;;10610498;27;20460;-47
2022/01/20 11:32:56;;;;;;;5.15;1.13;;;19.60;62.20;;;;;;10610225;27;20100;-46
2022/01/20 11:38:06;;;;;;;6.38;1.80;;;19.70;62.70;;;;;;10608866;27;20043;-46
2022/01/20 11:43:13;;;;;;;5.72;1.00;;;20.00;63.00;;;;;;10628411;27;20064;-47
2022/01/20 11:48:24;;;;;;;6.63;2.30;;;20.30;63.20;;;;;;10624453;27;20043;-45
2022/01/20 11:53:32;;;;;;;10.73;2.22;;;20.40;63.60;;;;;;10609650;27;20472;-48
2022/01/20 11:58:39;;;;;;;9.70;2.17;;;20.60;64.00;;;;;;10628165;27;20054;-51
2022/01/20 12:03:52;;;;;;;5.30;1.40;;;20.70;64.30;;;;;;10594649;27;20051;-49
2022/01/20 12:09:13;;;;;;;7.00;1.67;;;20.90;64.40;;;;;;10609224;27;20104;-48
2022/01/20 12:14:38;;;;;;;6.07;1.45;;;21.00;64.50;;;;;;10626255;27;20051;-51
2022/01/20 12:19:54;;;;;;;6.63;1.27;;;21.20;64.50;;;;;;10625658;27;20047;-47
2022/01/20 12:25:00;;;;;;;2.75;1.13;;;21.20;64.90;;;;;;10607753;27;20500;-49
2022/01/20 12:30:16;;;;;;;2.47;1.10;;;21.30;65.20;;;;;;10607963;27;20407;-51
2022/01/20 12:35:21;;;;;;;6.78;1.20;;;21.40;64.80;;;;;;10625192;27;20084;-53
2022/01/20 12:40:27;;;;;;;4.70;1.25;;;21.50;65.00;;;;;;10625115;27;20495;-49
2022/01/20 12:51:07;;;;;;;6.68;1.65;;;21.40;65.10;;;;;;10608903;27;20479;-47
2022/01/20 12:56:13;;;;;;;3.95;1.20;;;21.40;65.30;;;;;;10626220;27;20050;-50
2022/01/20 13:01:20;;;;;;;3.08;1.23;;;21.30;65.40;;;;;;10591074;27;20047;-48
2022/01/20 13:06:27;;;;;;;3.70;1.42;;;21.30;65.50;;;;;;10607224;27;20096;-48
2022/01/20 13:11:52;;;;;;;3.03;1.33;;;21.20;65.60;;;;;;10621432;27;20483;-48
2022/01/20 13:16:57;;;;;;;2.75;1.30;;;21.20;65.60;;;;;;10607185;27;20051;-46
2022/01/20 13:22:07;;;;;;;4.07;1.47;;;21.10;65.70;;;;;;10622023;27;20043;-49
2022/01/20 13:27:14;;;;;;;4.57;1.20;;;21.10;65.60;;;;;;10624431;27;20115;-47
2022/01/20 13:32:20;;;;;;;2.78;1.33;;;21.00;65.80;;;;;;10623777;27;20083;-47
2022/01/20 13:37:27;;;;;;;3.85;1.60;;;20.90;65.60;;;;;;10621125;27;20047;-45
2022/01/20 13:42:44;;;;;;;6.38;1.27;;;20.80;65.80;;;;;;10623928;27;20134;-47
2022/01/20 13:47:52;;;;;;;3.83;1.45;;;20.70;65.90;;;;;;10623868;27;20043;-47
2022/01/20 13:52:59;;;;;;;4.50;1.13;;;20.60;66.10;;;;;;10623604;27;20051;-46
2022/01/20 13:58:04;;;;;;;3.58;0.95;;;20.60;66.20;;;;;;10623784;28;20468;-47
2022/01/20 14:03:10;;;;;;;2.97;1.13;;;20.50;66.10;;;;;;10624391;28;20381;-45
2022/01/20 14:08:17;;;;;;;5.03;1.25;;;20.50;66.20;;;;;;10624092;28;20043;-47
2022/01/20 14:13:23;;;;;;;4.68;1.20;;;20.50;66.20;;;;;;10623558;28;20536;-46
2022/01/20 14:18:31;;;;;;;5.53;1.20;;;20.40;66.20;;;;;;10628503;27;20166;-46
2022/01/20 14:23:37;;;;;;;6.80;0.90;;;20.30;66.20;;;;;;10631829;27;20112;-47
2022/01/20 14:28:41;;;;;;;1.20;0.77;;;20.30;66.30;;;;;;10630179;27;20108;-47
2022/01/20 14:33:46;;;;;;;2.08;0.88;;;20.20;66.20;;;;;;10632206;27;20047;-46
2022/01/20 14:38:53;;;;;;;1.73;0.80;;;20.10;66.10;;;;;;10632033;27;20088;-47
2022/01/20 14:43:58;;;;;;;1.65;0.52;;;20.10;66.10;;;;;;10631437;27;20047;-46
2022/01/20 14:49:03;;;;;;;1.42;0.60;;;20.10;66.10;;;;;;10631023;27;20385;-46
2022/01/20 14:54:08;;;;;;;0.40;0.40;;;20.20;66.00;;;;;;10632131;27;20076;-46
2022/01/20 14:59:14;;;;;;;0.55;0.30;;;20.30;66.00;;;;;;10630510;27;20043;-47
2022/01/20 15:04:20;;;;;;;0.77;0.55;;;20.30;65.80;;;;;;10630239;27;20484;-46
2022/01/20 15:09:25;;;;;;;0.98;0.60;;;20.40;65.70;;;;;;10630602;27;20038;-45
2022/01/20 15:14:30;;;;;;;1.80;0.82;;;20.50;65.60;;;;;;10631058;27;20047;-48
2022/01/20 15:19:35;;;;;;;1.48;0.80;;;20.50;65.40;;;;;;10629803;27;20099;-46
2022/01/20 15:24:40;;;;;;;2.13;1.30;;;20.60;65.40;;;;;;10629195;27;20051;-50
2022/01/20 15:29:47;;;;;;;2.55;1.83;;;20.60;65.30;;;;;;10628160;27;20388;-51
2022/01/20 15:35:12;;;;;;;2.60;1.60;;;20.70;65.20;;;;;;10629096;27;20449;-49
2022/01/20 15:40:18;;;;;;;2.45;1.75;;;20.80;65.10;;;;;;10629468;27;20047;-46
2022/01/20 15:45:23;;;;;;;2.47;1.80;;;20.80;65.00;;;;;;10628919;27;20533;-48
2022/01/20 15:50:28;;;;;;;5.25;2.92;;;20.90;64.90;;;;;;10628526;27;20051;-48
2022/01/20 15:55:35;;;;;;;5.72;3.60;;;20.90;64.90;;;;;;10628390;27;20100;-52
2022/01/20 16:00:41;;;;;;;7.05;3.67;;;20.90;64.70;;;;;;10621228;27;20484;-50
2022/01/20 16:05:46;;;;;;;13.77;6.03;;;21.00;64.60;;;;;;10621877;27;20051;-51
2022/01/20 16:10:50;;;;;;;14.02;6.03;;;20.90;63.90;;;;;;10627752;27;20047;-51
2022/01/20 16:16:01;;;;;;;10.25;5.38;;;20.90;63.40;;;;;;10627496;27;20507;-53
2022/01/20 16:21:08;;;;;;;8.45;4.45;;;20.90;63.20;;;;;;10627239;27;20116;-52
2022/01/20 16:26:15;;;;;;;7.38;4.40;;;20.90;63.00;;;;;;10627152;27;20047;-52
2022/01/20 16:31:23;;;;;;;9.18;4.85;;;20.90;62.80;;;;;;10626795;27;20043;-53
2022/01/20 16:36:28;;;;;;;8.82;4.35;;;20.90;62.80;;;;;;10627766;27;20544;-52
2022/01/20 16:41:33;;;;;;;8.18;4.30;;;20.90;62.70;;;;;;10625511;27;20051;-52
2022/01/20 16:46:38;;;;;;;7.43;4.28;;;20.90;62.70;;;;;;10625879;27;20068;-51
2022/01/20 16:51:43;;;;;;;8.82;4.68;;;20.90;62.70;;;;;;10624464;27;20051;-52
2022/01/20 16:56:48;;;;;;;5.70;3.78;;;20.90;62.70;;;;;;10625383;27;20047;-52
2022/01/20 17:01:53;;;;;;;9.25;4.55;;;20.80;62.60;;;;;;10625204;27;20396;-52
2022/01/20 17:06:58;;;;;;;9.52;4.28;;;20.80;62.70;;;;;;10624828;27;20092;-52
2022/01/20 17:12:03;;;;;;;8.38;4.00;;;20.80;62.70;;;;;;10623480;27;20043;-50
2022/01/20 17:17:07;;;;;;;9.63;4.00;;;20.80;62.70;;;;;;10624147;27;20088;-53
2022/01/20 17:22:12;;;;;;;11.38;5.25;;;20.80;62.80;;;;;;10624753;27;20107;-51
2022/01/20 17:27:17;;;;;;;11.30;5.65;;;20.60;61.60;;;;;;10624725;27;20480;-54
2022/01/20 17:32:22;;;;;;;11.77;5.80;;;20.50;61.30;;;;;;10625802;27;20491;-55
2022/01/20 17:37:27;;;;;;;11.82;5.88;;;20.40;61.30;;;;;;10624297;27;20055;-52
2022/01/20 17:42:32;;;;;;;11.48;6.50;;;20.30;61.50;;;;;;10623786;27;20491;-51
2022/01/20 17:47:38;;;;;;;12.57;6.80;;;20.30;60.80;;;;;;10623273;27;20043;-52
2022/01/20 17:52:43;;;;;;;14.98;6.47;;;20.20;60.50;;;;;;10622574;27;20100;-54
2022/01/20 17:57:48;;;;;;;14.40;6.65;;;20.10;60.60;;;;;;10624300;28;20046;-50
2022/01/20 18:02:56;;;;;;;11.48;6.35;;;20.10;60.70;;;;;;10624020;28;20051;-53
2022/01/20 18:08:01;;;;;;;13.82;7.07;;;20.00;60.60;;;;;;10624156;28;20047;-54
2022/01/20 18:13:06;;;;;;;11.13;6.13;;;20.00;60.60;;;;;;10610154;28;20092;-48
2022/01/20 18:18:10;;;;;;;13.20;6.32;;;19.90;61.20;;;;;;10622861;28;20072;-46
2022/01/20 18:23:33;;;;;;;12.55;6.82;;;20.10;61.00;;;;;;10617438;28;20043;-46
2022/01/20 18:28:42;;;;;;;11.75;5.65;;;20.20;61.00;;;;;;10623693;28;20055;-47
2022/01/20 18:33:47;;;;;;;12.88;5.93;;;20.20;61.00;;;;;;10623263;28;20155;-45
2022/01/20 18:38:52;;;;;;;13.63;5.57;;;20.20;61.10;;;;;;10622971;28;20556;-47
2022/01/20 18:43:56;;;;;;;8.75;5.50;;;20.20;61.30;;;;;;10622851;28;20104;-48
2022/01/20 18:49:01;;;;;;;10.00;6.03;;;20.20;62.10;;;;;;10622985;28;20376;-49
2022/01/20 18:54:07;;;;;;;12.00;5.53;;;20.20;61.70;;;;;;10622574;28;20054;-45
2022/01/20 18:59:12;;;;;;;10.93;5.97;;;20.10;61.80;;;;;;10623286;28;20043;-47
2022/01/20 19:04:17;;;;;;;13.02;5.65;;;20.10;62.00;;;;;;10628942;27;20051;-46
2022/01/20 19:09:23;;;;;;;9.57;5.57;;;20.10;62.60;;;;;;10630343;27;20043;-46
